createdAt,value
2023-02-27T00:00:00.460Z,-1.25
2023-02-27T00:03:12.030Z,-1.35
2023-02-27T00:06:14.793Z,-1.31
2023-02-27T00:09:18.392Z,-1.36
2023-02-27T00:12:22.442Z,-1.36
2023-02-27T00:15:25.476Z,-1.39
2023-02-27T00:18:28.196Z,-1.45
2023-02-27T00:21:31.145Z,-1.50
2023-02-27T00:24:33.845Z,-1.54
2023-02-27T00:27:37.960Z,-1.57
2023-02-27T00:30:40.770Z,-1.61
2023-02-27T00:33:43.615Z,-1.66
2023-02-27T00:36:46.391Z,-1.65
2023-02-27T00:39:50.303Z,-1.46
2023-02-27T00:42:54.712Z,-1.37
2023-02-27T00:45:57.623Z,-1.41
2023-02-27T00:49:00.321Z,-1.46
2023-02-27T00:52:03.558Z,-1.49
2023-02-27T00:55:07.413Z,-1.46
2023-02-27T00:58:14.546Z,-1.54
2023-02-27T01:01:17.632Z,-1.58
2023-02-27T01:04:20.535Z,-1.62
2023-02-27T01:07:23.272Z,-1.60
2023-02-27T01:10:29.319Z,-1.62
2023-02-27T01:13:33.513Z,-1.62
2023-02-27T01:16:38.587Z,-1.67
2023-02-27T01:19:41.452Z,-1.68
2023-02-27T01:22:44.160Z,-1.70
2023-02-27T01:25:48.226Z,-1.71
2023-02-27T01:28:52.365Z,-1.74
2023-02-27T01:31:55.230Z,-1.68
2023-02-27T01:34:58.039Z,-1.44
2023-02-27T01:38:00.716Z,-1.40
2023-02-27T01:41:04.505Z,-1.17
2023-02-27T01:44:10.564Z,-1.24
2023-02-27T01:47:13.239Z,-1.24
2023-02-27T01:50:16.948Z,-1.26
2023-02-27T01:53:24.975Z,-1.34
2023-02-27T01:56:30.667Z,-1.41
2023-02-27T01:59:36.540Z,-1.56
2023-02-27T02:02:43.312Z,-1.57
2023-02-27T02:05:47.282Z,-1.59
2023-02-27T02:08:52.416Z,-1.74
2023-02-27T02:11:56.220Z,-1.77
2023-02-27T02:15:03.252Z,-1.76
2023-02-27T02:18:20.796Z,-1.71
2023-02-27T02:21:55.314Z,-1.57
2023-02-27T02:25:33.522Z,-1.61
2023-02-27T02:29:20.075Z,-1.59
2023-02-27T02:32:56.288Z,-1.75
2023-02-27T02:36:29.546Z,-1.72
2023-02-27T02:40:18.117Z,-1.75
2023-02-27T02:43:28.743Z,-1.73
2023-02-27T02:46:41.155Z,-1.77
2023-02-27T02:49:50.829Z,-1.83
2023-02-27T02:53:04.923Z,-1.88
2023-02-27T02:56:22.682Z,-1.91
2023-02-27T02:59:31.735Z,-2.03
2023-02-27T03:02:40.563Z,-1.90
2023-02-27T03:05:52.762Z,-1.92
2023-02-27T03:09:00.122Z,-1.91
2023-02-27T03:12:09.091Z,-1.94
2023-02-27T03:15:16.456Z,-1.94
2023-02-27T03:18:32.418Z,-1.97
2023-02-27T03:21:39.919Z,-1.94
2023-02-27T03:24:46.226Z,-1.96
2023-02-27T03:27:57.290Z,-1.86
2023-02-27T03:31:06.370Z,-1.84
2023-02-27T03:34:18.058Z,-1.93
2023-02-27T03:37:40.513Z,-1.90
2023-02-27T03:40:50.691Z,-1.93
2023-02-27T03:44:02.273Z,-1.92
2023-02-27T03:47:05.191Z,-1.92
2023-02-27T03:50:09.381Z,-1.90
2023-02-27T03:53:20.181Z,-1.91
2023-02-27T03:56:30.281Z,-1.89
2023-02-27T03:59:36.965Z,-1.87
2023-02-27T04:02:40.956Z,-1.71
2023-02-27T04:05:44.334Z,-1.81
2023-02-27T04:08:57.866Z,-1.86
2023-02-27T04:12:19.372Z,-1.88
2023-02-27T04:15:32.262Z,-1.58
2023-02-27T04:18:52.811Z,-1.74
2023-02-27T04:22:13.226Z,-1.76
2023-02-27T04:26:08.825Z,-1.66
2023-02-27T04:29:19.136Z,-1.82
2023-02-27T04:32:32.548Z,-1.84
2023-02-27T04:35:40.288Z,-1.90
2023-02-27T04:38:47.405Z,-1.97
2023-02-27T04:41:55.498Z,-1.78
2023-02-27T04:45:02.144Z,-1.90
2023-02-27T04:48:11.605Z,-1.98
2023-02-27T04:51:17.640Z,-2.07
2023-02-27T04:54:30.965Z,-2.09
2023-02-27T04:57:38.212Z,-2.13
2023-02-27T05:00:45.300Z,-2.13
2023-02-27T05:03:52.989Z,-2.13
2023-02-27T05:06:57.433Z,-2.18
2023-02-27T05:10:03.468Z,-2.18
2023-02-27T05:13:17.075Z,-2.19
2023-02-27T05:16:24.246Z,-2.21
2023-02-27T05:19:28.424Z,-2.21
2023-02-27T05:22:37.205Z,-2.22
2023-02-27T05:25:51.460Z,-2.23
2023-02-27T05:29:00.160Z,-2.28
2023-02-27T05:32:12.683Z,-2.23
2023-02-27T05:35:26.813Z,-2.23
2023-02-27T05:38:34.718Z,-2.20
2023-02-27T05:41:45.075Z,-2.01
2023-02-27T05:44:55.418Z,-2.15
2023-02-27T05:48:03.678Z,-2.26
2023-02-27T05:51:10.946Z,-2.22
2023-02-27T05:54:23.429Z,-2.25
2023-02-27T05:57:33.237Z,-2.28
2023-02-27T06:00:40.452Z,-2.25
2023-02-27T06:03:44.690Z,-2.20
2023-02-27T06:06:49.300Z,-2.22
2023-02-27T06:09:52.139Z,-2.24
2023-02-27T06:12:54.928Z,-2.24
2023-02-27T06:15:57.683Z,-2.27
2023-02-27T06:19:04.577Z,-2.29
2023-02-27T06:22:10.022Z,-2.29
2023-02-27T06:25:13.676Z,-2.25
2023-02-27T06:28:16.513Z,-2.14
2023-02-27T06:31:19.206Z,-2.13
2023-02-27T06:34:21.882Z,-2.10
2023-02-27T06:37:25.972Z,-1.92
2023-02-27T06:40:28.721Z,-1.99
2023-02-27T06:43:34.697Z,-1.98
2023-02-27T06:46:37.472Z,-1.99
2023-02-27T06:49:40.162Z,-1.86
2023-02-27T06:52:44.185Z,-1.81
2023-02-27T06:55:46.928Z,-1.82
2023-02-27T06:58:50.102Z,-1.81
2023-02-27T07:01:53.061Z,-1.75
2023-02-27T07:04:55.807Z,-1.75
2023-02-27T07:07:59.931Z,-1.56
2023-02-27T07:11:08.760Z,-1.37
2023-02-27T07:14:12.612Z,-1.17
2023-02-27T07:17:18.576Z,-1.09
2023-02-27T07:20:21.574Z,-0.89
2023-02-27T07:23:28.694Z,-0.78
2023-02-27T07:26:31.412Z,-0.83
2023-02-27T07:29:35.980Z,-0.70
2023-02-27T07:32:38.712Z,-0.68
2023-02-27T07:35:41.464Z,-0.47
2023-02-27T07:38:45.547Z,-0.42
2023-02-27T07:41:48.187Z,-0.33
2023-02-27T07:44:50.905Z,-0.28
2023-02-27T07:47:53.565Z,-0.42
2023-02-27T07:50:56.308Z,-0.45
2023-02-27T07:54:00.359Z,-0.30
2023-02-27T07:57:03.464Z,-0.21
2023-02-27T08:00:08.126Z,-0.11
2023-02-27T08:03:11.513Z,-0.28
2023-02-27T08:06:22.482Z,-0.05
2023-02-27T08:09:26.498Z,0.09
2023-02-27T08:12:29.151Z,0.07
2023-02-27T08:15:32.711Z,0.02
2023-02-27T08:18:49.369Z,0.30
2023-02-27T08:21:52.071Z,0.37
2023-02-27T08:24:59.072Z,0.20
2023-02-27T08:28:03.922Z,0.46
2023-02-27T08:31:07.094Z,0.54
2023-02-27T08:34:10.920Z,0.74
2023-02-27T08:37:14.907Z,0.77
2023-02-27T08:40:26.652Z,0.55
2023-02-27T08:43:31.581Z,0.65
2023-02-27T08:46:34.378Z,0.90
2023-02-27T08:49:37.076Z,0.85
2023-02-27T08:52:40.216Z,1.06
2023-02-27T08:55:45.063Z,0.98
2023-02-27T08:58:47.779Z,1.31
2023-02-27T09:01:50.627Z,1.21
2023-02-27T09:04:53.806Z,1.26
2023-02-27T09:08:00.370Z,1.36
2023-02-27T09:11:05.210Z,1.45
2023-02-27T09:14:10.040Z,1.53
2023-02-27T09:17:12.730Z,1.25
2023-02-27T09:20:18.591Z,1.59
2023-02-27T09:23:22.136Z,1.45
2023-02-27T09:26:41.961Z,1.56
2023-02-27T09:29:46.220Z,1.52
2023-02-27T09:32:49.046Z,2.02
2023-02-27T09:35:51.808Z,2.12
2023-02-27T09:38:54.930Z,2.12
2023-02-27T09:42:02.980Z,2.05
2023-02-27T09:45:08.460Z,2.11
2023-02-27T09:48:21.217Z,2.06
2023-02-27T09:51:24.823Z,1.95
2023-02-27T09:54:33.952Z,2.18
2023-02-27T09:57:46.480Z,2.25
2023-02-27T10:00:51.356Z,2.49
2023-02-27T10:04:28.974Z,2.50
2023-02-27T10:07:39.581Z,2.43
2023-02-27T10:10:55.053Z,2.48
2023-02-27T10:14:18.878Z,2.08
2023-02-27T10:17:28.686Z,2.00
2023-02-27T10:20:34.904Z,2.09
2023-02-27T10:23:43.088Z,2.40
2023-02-27T10:26:46.755Z,2.57
2023-02-27T10:29:51.878Z,2.63
2023-02-27T10:32:58.233Z,2.65
2023-02-27T10:36:03.116Z,2.69
2023-02-27T10:39:09.866Z,2.65
2023-02-27T10:42:14.949Z,2.73
2023-02-27T10:45:26.597Z,2.78
2023-02-27T10:48:29.557Z,3.01
2023-02-27T10:51:35.095Z,3.12
2023-02-27T10:54:38.674Z,3.36
2023-02-27T10:57:43.765Z,3.50
2023-02-27T11:04:30.849Z,3.93
2023-02-27T11:07:35.870Z,4.05
2023-02-27T11:10:38.561Z,4.17
2023-02-27T11:13:43.785Z,4.26
2023-02-27T11:16:52.437Z,4.20
2023-02-27T11:19:55.742Z,4.08
2023-02-27T11:23:04.771Z,4.03
2023-02-27T11:26:16.956Z,4.22
2023-02-27T11:29:21.387Z,4.04
2023-02-27T11:32:27.120Z,3.90
2023-02-27T11:35:32.098Z,3.92
2023-02-27T11:38:37.957Z,3.98
2023-02-27T11:41:44.843Z,3.80
2023-02-27T11:45:08.407Z,3.79
2023-02-27T11:48:19.616Z,3.60
2023-02-27T11:51:34.105Z,3.44
2023-02-27T11:54:40.506Z,3.40
2023-02-27T11:57:47.200Z,3.38
2023-02-27T12:00:55.791Z,3.64
2023-02-27T12:04:05.440Z,3.83
2023-02-27T12:07:18.590Z,3.92
2023-02-27T12:10:28.877Z,4.17
2023-02-27T12:13:37.153Z,4.19
2023-02-27T12:16:54.066Z,4.47
2023-02-27T12:20:22.982Z,4.65
2023-02-27T12:23:32.915Z,4.82
2023-02-27T12:26:43.202Z,5.17
2023-02-27T12:29:52.193Z,5.30
2023-02-27T12:33:02.552Z,5.21
2023-02-27T12:36:13.171Z,5.33
2023-02-27T12:39:20.153Z,5.31
2023-02-27T12:42:53.685Z,5.04
2023-02-27T12:46:08.707Z,4.97
2023-02-27T12:49:22.244Z,5.11
2023-02-27T12:52:39.076Z,5.43
2023-02-27T12:55:48.255Z,5.15
2023-02-27T12:58:59.336Z,5.34
2023-02-27T13:02:18.071Z,5.15
2023-02-27T13:05:32.394Z,4.85
2023-02-27T13:09:21.337Z,4.73
2023-02-27T13:12:28.522Z,4.62
2023-02-27T13:15:37.743Z,4.35
2023-02-27T13:18:45.505Z,4.52
2023-02-27T13:21:54.802Z,4.36
2023-02-27T13:25:02.933Z,4.73
2023-02-27T13:28:09.451Z,4.75
2023-02-27T13:31:21.107Z,5.01
2023-02-27T13:34:31.529Z,4.90
2023-02-27T13:37:56.043Z,4.64
2023-02-27T13:41:38.190Z,4.36
2023-02-27T13:44:42.885Z,4.25
2023-02-27T13:47:50.002Z,4.41
2023-02-27T13:50:53.250Z,4.46
2023-02-27T13:54:09.987Z,4.58
2023-02-27T13:57:22.875Z,4.88
2023-02-27T14:00:31.838Z,5.03
2023-02-27T14:03:34.645Z,5.33
2023-02-27T14:06:45.713Z,5.07
2023-02-27T14:09:51.700Z,4.81
2023-02-27T14:12:57.499Z,5.06
2023-02-27T14:16:00.893Z,4.99
2023-02-27T14:19:04.614Z,4.93
2023-02-27T14:22:39.922Z,4.84
2023-02-27T14:25:47.615Z,5.02
2023-02-27T14:28:55.735Z,5.10
2023-02-27T14:32:02.074Z,4.79
2023-02-27T14:35:07.143Z,4.98
2023-02-27T14:38:12.092Z,5.31
2023-02-27T14:41:38.063Z,5.43
2023-02-27T14:44:44.741Z,5.71
2023-02-27T14:47:47.927Z,5.74
2023-02-27T14:50:54.087Z,5.93
2023-02-27T14:54:06.405Z,6.02
2023-02-27T14:57:16.480Z,6.09
2023-02-27T15:00:37.841Z,5.91
2023-02-27T15:03:45.956Z,5.78
2023-02-27T15:06:51.045Z,5.64
2023-02-27T15:09:58.941Z,5.52
2023-02-27T15:13:03.638Z,5.51
2023-02-27T15:16:37.440Z,5.53
2023-02-27T15:19:49.850Z,5.50
2023-02-27T15:22:52.584Z,5.24
2023-02-27T15:25:57.013Z,5.24
2023-02-27T15:29:00.677Z,5.46
2023-02-27T15:32:05.715Z,5.35
2023-02-27T15:35:16.770Z,5.12
2023-02-27T15:38:27.123Z,5.15
2023-02-27T15:41:30.221Z,4.85
2023-02-27T15:44:38.509Z,4.79
2023-02-27T15:47:44.014Z,4.72
2023-02-27T15:50:48.670Z,4.92
2023-02-27T15:53:55.001Z,4.64
2023-02-27T15:56:58.537Z,4.91
2023-02-27T16:00:02.123Z,4.89
2023-02-27T16:03:07.470Z,4.72
2023-02-27T16:06:13.018Z,4.51
2023-02-27T16:09:25.846Z,4.38
2023-02-27T16:12:33.528Z,4.26
2023-02-27T16:15:38.261Z,4.58
2023-02-27T16:18:48.776Z,4.33
2023-02-27T16:22:06.552Z,4.34
2023-02-27T16:25:11.091Z,4.18
2023-02-27T16:28:15.057Z,4.28
2023-02-27T16:31:25.628Z,4.00
2023-02-27T16:34:44.775Z,3.72
2023-02-27T16:37:49.377Z,3.82
2023-02-27T16:40:52.532Z,3.61
2023-02-27T16:43:55.772Z,3.52
2023-02-27T16:46:59.616Z,3.49
2023-02-27T16:50:03.701Z,3.47
2023-02-27T16:53:06.381Z,3.32
2023-02-27T16:56:10.828Z,3.33
2023-02-27T16:59:35.022Z,3.34
2023-02-27T17:02:41.046Z,3.30
2023-02-27T17:05:45.107Z,3.34
2023-02-27T17:08:47.801Z,3.19
2023-02-27T17:11:50.932Z,3.11
2023-02-27T17:14:53.888Z,3.31
2023-02-27T17:17:56.544Z,3.38
2023-02-27T17:21:03.274Z,3.32
2023-02-27T17:24:07.058Z,3.01
2023-02-27T17:27:10.428Z,2.97
2023-02-27T17:30:15.473Z,2.79
2023-02-27T17:33:18.678Z,2.66
2023-02-27T17:36:24.309Z,2.71
2023-02-27T17:39:29.262Z,2.65
2023-02-27T17:42:32.108Z,2.70
2023-02-27T17:45:34.822Z,2.83
2023-02-27T17:48:38.167Z,2.72
2023-02-27T17:51:42.180Z,2.97
2023-02-27T17:54:45.127Z,2.72
2023-02-27T18:01:05.774Z,2.78
2023-02-27T18:04:11.267Z,2.79
2023-02-27T18:07:16.897Z,2.63
2023-02-27T18:10:25.371Z,2.69
2023-02-27T18:13:29.785Z,2.61
2023-02-27T18:16:32.823Z,2.58
2023-02-27T18:19:35.599Z,2.55
2023-02-27T18:22:39.675Z,2.48
2023-02-27T18:25:42.589Z,2.41
2023-02-27T18:28:49.026Z,2.29
2023-02-27T18:31:53.975Z,2.40
2023-02-27T18:34:56.813Z,2.53
2023-02-27T18:38:02.359Z,2.41
2023-02-27T18:41:06.748Z,2.34
2023-02-27T18:44:10.546Z,2.33
2023-02-27T18:47:16.322Z,2.31
2023-02-27T18:50:20.060Z,2.40
2023-02-27T18:53:24.034Z,2.41
2023-02-27T18:56:30.390Z,2.25
2023-02-27T18:59:36.092Z,2.23
2023-02-27T19:02:41.632Z,2.23
2023-02-27T19:05:52.075Z,2.24
2023-02-27T19:08:56.849Z,2.27
2023-02-27T19:12:00.318Z,2.05
2023-02-27T19:15:08.665Z,2.15
2023-02-27T19:18:11.289Z,2.20
2023-02-27T19:21:14.241Z,2.02
2023-02-27T19:24:18.333Z,1.97
2023-02-27T19:27:21.116Z,2.02
2023-02-27T19:30:25.373Z,1.83
2023-02-27T19:33:28.754Z,1.94
2023-02-27T19:36:35.511Z,2.04
2023-02-27T19:39:39.890Z,1.84
2023-02-27T19:42:44.649Z,1.80
2023-02-27T19:45:47.579Z,1.76
2023-02-27T19:48:54.009Z,1.81
2023-02-27T19:51:56.794Z,1.84
2023-02-27T19:55:00.829Z,1.97
2023-02-27T19:58:05.827Z,1.98
2023-02-27T20:01:09.801Z,2.06
2023-02-27T20:04:12.834Z,2.05
2023-02-27T20:07:15.613Z,2.19
2023-02-27T20:10:20.127Z,2.33
2023-02-27T20:13:22.960Z,2.16
2023-02-27T20:16:28.476Z,2.14
2023-02-27T20:19:31.311Z,2.46
2023-02-27T20:22:34.250Z,2.30
2023-02-27T20:25:38.335Z,2.19
2023-02-27T20:28:41.049Z,2.34
2023-02-27T20:31:46.250Z,2.38
2023-02-27T20:34:49.069Z,2.22
2023-02-27T20:37:53.997Z,2.36
2023-02-27T20:40:59.337Z,2.27
2023-02-27T20:44:02.299Z,2.29
2023-02-27T20:47:08.067Z,2.26
2023-02-27T20:50:12.548Z,2.36
2023-02-27T20:53:15.194Z,2.45
2023-02-27T20:56:21.455Z,2.59
2023-02-27T20:59:25.276Z,2.42
2023-02-27T21:02:28.300Z,2.51
2023-02-27T21:05:31.124Z,2.36
2023-02-27T21:08:36.474Z,2.38
2023-02-27T21:11:40.647Z,2.37
2023-02-27T21:14:44.508Z,2.55
2023-02-27T21:17:47.485Z,2.36
2023-02-27T21:20:53.750Z,2.35
2023-02-27T21:23:56.814Z,2.43
2023-02-27T21:27:00.980Z,2.13
2023-02-27T21:30:03.950Z,2.25
2023-02-27T21:33:07.216Z,2.20
2023-02-27T21:36:12.068Z,2.05
2023-02-27T21:39:17.479Z,1.98
2023-02-27T21:42:22.211Z,1.96
2023-02-27T21:45:24.891Z,1.98
2023-02-27T21:48:27.928Z,1.91
2023-02-27T21:51:39.994Z,1.95
2023-02-27T21:54:45.428Z,2.10
2023-02-27T21:57:49.642Z,2.01
2023-02-27T22:00:52.398Z,1.95
2023-02-27T22:03:55.645Z,1.60
2023-02-27T22:06:58.422Z,1.52
2023-02-27T22:10:01.347Z,1.58
2023-02-27T22:13:09.384Z,1.39
2023-02-27T22:16:13.463Z,1.23
2023-02-27T22:19:19.925Z,1.32
2023-02-27T22:22:22.845Z,1.14
2023-02-27T22:25:25.654Z,1.17
2023-02-27T22:28:30.689Z,1.06
2023-02-27T22:31:35.352Z,0.80
2023-02-27T22:34:38.125Z,0.68
2023-02-27T22:37:40.838Z,0.49
2023-02-27T22:40:46.744Z,0.67
2023-02-27T22:43:53.700Z,0.49
2023-02-27T22:46:56.859Z,0.45
2023-02-27T22:49:59.557Z,0.65
2023-02-27T22:53:02.286Z,0.66
2023-02-27T22:56:06.151Z,0.53
2023-02-27T22:59:10.376Z,0.53
2023-02-27T23:02:13.053Z,0.58
2023-02-27T23:05:15.887Z,0.59
2023-02-27T23:08:18.604Z,0.51
2023-02-27T23:11:24.526Z,0.46
2023-02-27T23:14:28.931Z,0.30
2023-02-27T23:17:33.130Z,0.15
2023-02-27T23:20:37.870Z,0.11
2023-02-27T23:23:41.163Z,0.15
2023-02-27T23:26:47.033Z,0.20
2023-02-27T23:29:54.091Z,0.11
2023-02-27T23:32:58.784Z,0.06
2023-02-27T23:36:01.744Z,0.17
2023-02-27T23:39:06.059Z,0.06
2023-02-27T23:42:19.137Z,0.05
2023-02-27T23:45:26.698Z,0.08
2023-02-27T23:48:29.439Z,-0.11
2023-02-27T23:51:34.314Z,-0.16
2023-02-27T23:54:40.219Z,-0.07
2023-02-27T23:57:42.998Z,-0.03
